createdAt,value
2018-09-28T00:00:21.194Z,0.00
2018-09-28T00:01:21.192Z,0.00
2018-09-28T00:02:21.187Z,0.00
2018-09-28T00:03:21.183Z,0.00
2018-09-28T00:04:21.180Z,0.00
2018-09-28T00:05:21.177Z,0.00
2018-09-28T00:06:21.172Z,0.00
2018-09-28T00:07:21.168Z,0.00
2018-09-28T00:08:21.164Z,0.00
2018-09-28T00:09:21.160Z,0.00
2018-09-28T00:10:21.156Z,0.00
2018-09-28T00:11:21.155Z,0.00
2018-09-28T00:12:21.150Z,0.00
2018-09-28T00:13:21.146Z,0.00
2018-09-28T00:14:21.140Z,0.00
2018-09-28T00:15:21.138Z,0.00
2018-09-28T00:16:21.133Z,0.00
2018-09-28T00:17:21.131Z,0.00
2018-09-28T00:18:21.125Z,0.00
2018-09-28T00:19:21.122Z,0.00
2018-09-28T00:20:21.119Z,0.00
2018-09-28T00:21:21.114Z,0.00
2018-09-28T00:22:21.110Z,0.00
2018-09-28T00:23:21.106Z,0.00
2018-09-28T00:24:21.104Z,0.00
2018-09-28T00:25:21.099Z,0.00
2018-09-28T00:26:21.095Z,0.00
2018-09-28T00:27:21.091Z,0.00
2018-09-28T00:28:21.087Z,0.00
2018-09-28T00:29:21.084Z,0.00
2018-09-28T00:30:21.083Z,0.00
2018-09-28T00:31:21.074Z,0.00
2018-09-28T00:32:21.072Z,0.00
2018-09-28T00:33:21.067Z,0.00
2018-09-28T00:34:21.063Z,0.00
2018-09-28T00:35:21.058Z,0.00
2018-09-28T00:36:21.055Z,0.00
2018-09-28T00:37:21.052Z,0.00
2018-09-28T00:38:21.047Z,0.00
2018-09-28T00:39:21.046Z,0.00
2018-09-28T00:40:21.039Z,0.00
2018-09-28T00:41:21.037Z,0.00
2018-09-28T00:42:21.033Z,0.00
2018-09-28T00:43:21.029Z,0.00
2018-09-28T00:44:21.026Z,0.00
2018-09-28T00:45:21.022Z,0.00
2018-09-28T00:46:21.015Z,0.00
2018-09-28T00:47:21.012Z,0.00
2018-09-28T00:48:21.009Z,0.00
2018-09-28T00:49:21.004Z,0.00
2018-09-28T00:50:21.000Z,0.00
2018-09-28T00:51:20.996Z,0.00
2018-09-28T00:52:20.992Z,0.00
2018-09-28T00:53:20.991Z,0.00
2018-09-28T00:54:20.985Z,0.00
2018-09-28T00:55:20.980Z,0.00
2018-09-28T00:56:20.977Z,0.00
2018-09-28T00:57:20.974Z,0.00
2018-09-28T00:58:20.968Z,0.00
2018-09-28T00:59:20.965Z,0.00
2018-09-28T01:00:20.961Z,0.00
2018-09-28T01:01:20.958Z,0.00
2018-09-28T01:02:20.954Z,0.00
2018-09-28T01:03:20.950Z,0.00
2018-09-28T01:04:20.946Z,0.00
2018-09-28T01:05:20.942Z,0.00
2018-09-28T01:06:20.938Z,0.00
2018-09-28T01:07:20.936Z,0.00
2018-09-28T01:08:20.931Z,0.00
2018-09-28T01:09:20.927Z,0.00
2018-09-28T01:10:20.923Z,0.00
2018-09-28T01:11:20.920Z,0.00
2018-09-28T01:12:20.916Z,0.00
2018-09-28T01:13:20.913Z,0.00
2018-09-28T01:14:20.908Z,0.00
2018-09-28T01:15:20.902Z,0.00
2018-09-28T01:16:20.900Z,0.00
2018-09-28T01:17:20.898Z,0.00
2018-09-28T01:18:20.893Z,0.00
2018-09-28T01:19:20.889Z,0.00
2018-09-28T01:20:20.885Z,0.00
2018-09-28T01:21:20.881Z,0.00
2018-09-28T01:22:20.879Z,0.00
2018-09-28T01:23:20.872Z,0.00
2018-09-28T01:24:20.868Z,0.00
2018-09-28T01:25:20.867Z,0.00
2018-09-28T01:26:20.860Z,0.00
2018-09-28T01:27:20.859Z,0.00
2018-09-28T01:28:20.853Z,0.00
2018-09-28T01:29:20.853Z,0.00
2018-09-28T01:30:20.845Z,0.00
2018-09-28T01:31:20.841Z,0.00
2018-09-28T01:32:20.846Z,0.00
2018-09-28T01:33:20.833Z,0.00
2018-09-28T01:34:20.829Z,0.00
2018-09-28T01:35:20.827Z,0.00
2018-09-28T01:36:20.822Z,0.00
2018-09-28T01:37:20.819Z,0.00
2018-09-28T01:38:20.813Z,0.00
2018-09-28T01:39:20.810Z,0.00
2018-09-28T01:40:20.807Z,0.00
2018-09-28T01:41:20.803Z,0.00
2018-09-28T01:42:20.799Z,0.00
2018-09-28T01:43:20.795Z,0.00
2018-09-28T01:44:20.791Z,0.00
2018-09-28T01:45:20.787Z,0.00
2018-09-28T01:46:20.782Z,0.00
2018-09-28T01:47:20.778Z,0.00
2018-09-28T01:48:20.774Z,0.00
2018-09-28T01:49:20.771Z,0.00
2018-09-28T01:50:20.765Z,0.00
2018-09-28T01:51:20.763Z,0.00
2018-09-28T01:52:20.758Z,0.00
2018-09-28T01:53:20.755Z,0.00
2018-09-28T01:54:20.749Z,0.00
2018-09-28T01:55:20.749Z,0.00
2018-09-28T01:56:20.742Z,0.00
2018-09-28T01:57:20.737Z,0.00
2018-09-28T01:58:20.733Z,0.00
2018-09-28T01:59:20.729Z,0.00
2018-09-28T02:00:20.726Z,0.00
2018-09-28T02:01:20.728Z,0.00
2018-09-28T02:02:20.718Z,0.00
2018-09-28T02:03:20.714Z,0.00
2018-09-28T02:04:20.710Z,0.00
2018-09-28T02:05:20.707Z,0.00
2018-09-28T02:06:20.700Z,0.00
2018-09-28T02:07:20.697Z,0.00
2018-09-28T02:08:20.695Z,0.00
2018-09-28T02:09:20.690Z,0.00
2018-09-28T02:10:20.685Z,0.00
2018-09-28T02:11:20.680Z,0.00
2018-09-28T02:12:20.684Z,0.00
2018-09-28T02:13:20.676Z,0.00
2018-09-28T02:14:20.670Z,0.00
2018-09-28T02:15:20.667Z,0.00
2018-09-28T02:16:20.662Z,0.00
2018-09-28T02:17:20.659Z,0.00
2018-09-28T02:18:20.654Z,0.00
2018-09-28T02:19:20.650Z,0.00
2018-09-28T02:20:20.646Z,0.00
2018-09-28T02:21:20.644Z,0.00
2018-09-28T02:22:20.638Z,0.00
2018-09-28T02:23:20.634Z,0.00
2018-09-28T02:24:20.631Z,0.00
2018-09-28T02:25:20.629Z,0.00
2018-09-28T02:26:20.625Z,0.00
2018-09-28T02:27:20.626Z,0.00
2018-09-28T02:28:20.616Z,0.00
2018-09-28T02:29:20.613Z,0.00
2018-09-28T02:30:20.608Z,0.00
2018-09-28T02:31:20.605Z,0.00
2018-09-28T02:32:20.602Z,0.00
2018-09-28T02:33:20.599Z,0.00
2018-09-28T02:34:20.594Z,0.00
2018-09-28T02:35:20.590Z,0.00
2018-09-28T02:36:20.588Z,0.00
2018-09-28T02:37:20.583Z,0.00
2018-09-28T02:38:20.579Z,0.00
2018-09-28T02:39:20.577Z,0.00
2018-09-28T02:40:20.573Z,0.00
2018-09-28T02:41:20.573Z,0.00
2018-09-28T02:42:20.567Z,0.00
2018-09-28T02:43:20.563Z,0.00
2018-09-28T02:44:20.558Z,0.00
2018-09-28T02:45:20.553Z,0.00
2018-09-28T02:46:20.550Z,0.00
2018-09-28T02:47:20.549Z,0.00
2018-09-28T02:48:20.543Z,0.00
2018-09-28T02:49:20.539Z,0.00
2018-09-28T02:50:20.535Z,0.00
2018-09-28T02:51:20.532Z,0.00
2018-09-28T02:52:20.529Z,0.00
2018-09-28T02:53:20.526Z,0.00
2018-09-28T02:54:20.521Z,0.00
2018-09-28T02:55:20.517Z,0.00
2018-09-28T02:56:20.514Z,0.00
2018-09-28T02:57:20.511Z,0.00
2018-09-28T02:58:20.508Z,0.00
2018-09-28T02:59:20.503Z,0.00
2018-09-28T03:00:20.500Z,0.00
2018-09-28T03:01:20.496Z,0.00
2018-09-28T03:02:20.492Z,0.00
2018-09-28T03:03:20.489Z,0.00
2018-09-28T03:04:20.485Z,0.00
2018-09-28T03:05:20.488Z,0.00
2018-09-28T03:06:20.529Z,0.00
2018-09-28T03:07:20.476Z,0.00
2018-09-28T03:08:20.473Z,0.00
2018-09-28T03:09:20.469Z,0.00
2018-09-28T03:10:20.464Z,0.00
2018-09-28T03:11:20.464Z,0.00
2018-09-28T03:12:20.458Z,0.00
2018-09-28T03:13:20.455Z,0.00
2018-09-28T03:14:20.451Z,0.00
2018-09-28T03:15:20.448Z,0.00
2018-09-28T03:16:20.446Z,0.00
2018-09-28T03:17:20.441Z,0.00
2018-09-28T03:18:20.436Z,0.00
2018-09-28T03:19:20.435Z,0.00
2018-09-28T03:20:20.432Z,0.00
2018-09-28T03:21:20.430Z,0.00
2018-09-28T03:22:20.423Z,0.00
2018-09-28T03:23:20.419Z,0.00
2018-09-28T03:24:20.417Z,0.00
2018-09-28T03:25:20.416Z,0.00
2018-09-28T03:26:20.410Z,0.00
2018-09-28T03:27:20.407Z,0.00
2018-09-28T03:28:20.404Z,0.00
2018-09-28T03:29:20.401Z,0.00
2018-09-28T03:30:20.396Z,0.00
2018-09-28T03:31:20.394Z,0.00
2018-09-28T03:32:20.396Z,0.00
2018-09-28T03:33:20.388Z,0.00
2018-09-28T03:34:20.385Z,0.00
2018-09-28T03:35:20.380Z,0.00
2018-09-28T03:36:20.379Z,0.00
2018-09-28T03:37:20.374Z,0.00
2018-09-28T03:38:20.370Z,0.00
2018-09-28T03:39:20.371Z,0.00
2018-09-28T03:40:20.369Z,0.00
2018-09-28T03:41:20.363Z,0.00
2018-09-28T03:42:20.375Z,0.00
2018-09-28T03:43:20.353Z,0.00
2018-09-28T03:44:20.350Z,0.00
2018-09-28T03:45:20.351Z,0.00
2018-09-28T03:46:20.343Z,0.00
2018-09-28T03:47:20.339Z,0.00
2018-09-28T03:48:20.338Z,0.00
2018-09-28T03:49:20.339Z,0.00
2018-09-28T03:50:20.329Z,0.00
2018-09-28T03:51:20.331Z,0.00
2018-09-28T03:52:20.325Z,0.00
2018-09-28T03:53:20.320Z,0.00
2018-09-28T03:54:20.316Z,0.00
2018-09-28T03:55:20.320Z,0.00
2018-09-28T03:56:20.310Z,0.00
2018-09-28T03:57:20.307Z,0.00
2018-09-28T03:58:20.303Z,0.00
2018-09-28T03:59:20.300Z,0.00
2018-09-28T04:00:20.298Z,0.00
2018-09-28T04:01:20.294Z,0.00
2018-09-28T04:02:20.289Z,0.00
2018-09-28T04:03:20.290Z,0.00
2018-09-28T04:04:20.284Z,0.00
2018-09-28T04:05:20.281Z,0.00
2018-09-28T04:06:20.277Z,0.00
2018-09-28T04:07:20.273Z,0.00
2018-09-28T04:08:20.270Z,0.00
2018-09-28T04:09:20.269Z,0.00
2018-09-28T04:10:20.263Z,0.00
2018-09-28T04:11:20.260Z,0.00
2018-09-28T04:12:20.260Z,0.00
2018-09-28T04:13:20.254Z,0.00
2018-09-28T04:14:20.251Z,0.00
2018-09-28T04:15:20.251Z,0.00
2018-09-28T04:16:20.245Z,0.00
2018-09-28T04:17:20.241Z,0.00
2018-09-28T04:18:20.240Z,0.00
2018-09-28T04:19:20.233Z,0.00
2018-09-28T04:20:20.231Z,0.00
2018-09-28T04:21:20.228Z,0.00
2018-09-28T04:22:20.223Z,0.00
2018-09-28T04:23:20.221Z,0.00
2018-09-28T04:24:20.217Z,0.00
2018-09-28T04:25:20.215Z,0.00
2018-09-28T04:26:20.210Z,0.00
2018-09-28T04:27:20.207Z,0.00
2018-09-28T04:28:20.202Z,0.00
2018-09-28T04:29:20.203Z,0.00
2018-09-28T04:30:20.201Z,0.00
2018-09-28T04:31:20.195Z,0.00
2018-09-28T04:32:20.192Z,0.00
2018-09-28T04:33:20.187Z,0.00
2018-09-28T04:34:20.185Z,0.00
2018-09-28T04:35:20.183Z,0.00
2018-09-28T04:36:20.179Z,0.00
2018-09-28T04:37:20.174Z,0.00
2018-09-28T04:38:20.171Z,0.00
2018-09-28T04:39:20.168Z,0.00
2018-09-28T04:40:20.166Z,0.00
2018-09-28T04:41:20.161Z,0.00
2018-09-28T04:42:20.162Z,0.00
2018-09-28T04:43:20.154Z,0.00
2018-09-28T04:44:20.154Z,0.00
2018-09-28T04:45:20.221Z,0.00
2018-09-28T04:46:20.143Z,0.00
2018-09-28T04:47:20.141Z,0.00
2018-09-28T04:48:20.138Z,0.00
2018-09-28T04:49:20.138Z,0.00
2018-09-28T04:50:20.132Z,0.00
2018-09-28T04:51:20.129Z,0.00
2018-09-28T04:52:20.125Z,0.00
2018-09-28T04:53:20.122Z,0.00
2018-09-28T04:54:20.120Z,0.00
2018-09-28T04:55:20.116Z,0.00
2018-09-28T04:56:20.113Z,0.00
2018-09-28T04:57:20.109Z,0.00
2018-09-28T04:58:20.107Z,0.00
2018-09-28T04:59:20.103Z,0.00
2018-09-28T05:00:20.099Z,0.00
2018-09-28T05:01:20.097Z,0.00
2018-09-28T05:02:20.092Z,4.00
2018-09-28T05:03:20.091Z,0.00
2018-09-28T05:04:20.088Z,4.00
2018-09-28T05:05:20.084Z,4.00
2018-09-28T05:06:20.079Z,4.00
2018-09-28T05:07:20.077Z,4.00
2018-09-28T05:08:20.074Z,8.00
2018-09-28T05:09:20.073Z,12.00
2018-09-28T05:10:20.067Z,8.00
2018-09-28T05:11:20.064Z,16.00
2018-09-28T05:12:20.061Z,16.00
2018-09-28T05:13:20.059Z,24.00
2018-09-28T05:14:20.059Z,32.00
2018-09-28T05:15:20.053Z,36.00
2018-09-28T05:16:20.049Z,44.00
2018-09-28T05:17:20.046Z,52.00
2018-09-28T05:18:20.043Z,56.00
2018-09-28T05:19:20.092Z,56.00
2018-09-28T05:20:20.036Z,60.00
2018-09-28T05:21:20.034Z,60.00
2018-09-28T05:22:20.029Z,60.00
2018-09-28T05:23:20.026Z,60.00
2018-09-28T05:24:20.024Z,60.00
2018-09-28T05:25:20.049Z,60.00
2018-09-28T05:26:20.016Z,72.00
2018-09-28T05:27:20.013Z,80.00
2018-09-28T05:28:20.010Z,84.00
2018-09-28T05:29:20.014Z,80.00
2018-09-28T05:30:20.004Z,80.00
2018-09-28T05:31:20.085Z,80.00
2018-09-28T05:32:20.139Z,84.00
2018-09-28T05:33:19.996Z,100.00
2018-09-28T05:34:19.990Z,120.00
2018-09-28T05:35:19.988Z,128.00
2018-09-28T05:36:19.989Z,140.00
2018-09-28T05:37:20.018Z,148.00
2018-09-28T05:38:19.984Z,164.00
2018-09-28T05:39:20.025Z,164.00
2018-09-28T05:40:19.973Z,156.00
2018-09-28T05:41:19.970Z,156.00
2018-09-28T05:42:19.966Z,164.00
2018-09-28T05:43:19.963Z,180.00
2018-09-28T05:44:19.963Z,204.00
2018-09-28T05:45:19.956Z,216.00
2018-09-28T05:46:19.973Z,232.00
2018-09-28T05:47:19.950Z,280.00
2018-09-28T05:48:19.947Z,316.00
2018-09-28T05:49:19.944Z,288.00
2018-09-28T05:50:19.941Z,208.00
2018-09-28T05:51:19.990Z,144.00
2018-09-28T05:52:19.936Z,148.00
2018-09-28T05:53:19.934Z,152.00
2018-09-28T05:54:19.930Z,180.00
2018-09-28T05:55:19.925Z,216.00
2018-09-28T05:56:19.923Z,252.00
2018-09-28T05:57:19.921Z,264.00
2018-09-28T05:58:19.917Z,284.00
2018-09-28T05:59:19.914Z,284.00
2018-09-28T06:00:19.913Z,288.00
2018-09-28T06:01:19.909Z,324.00
2018-09-28T06:02:19.906Z,340.00
2018-09-28T06:03:19.902Z,304.00
2018-09-28T06:04:19.899Z,276.00
2018-09-28T06:05:19.915Z,252.00
2018-09-28T06:06:19.893Z,228.00
2018-09-28T06:07:19.890Z,216.00
2018-09-28T06:08:19.887Z,236.00
2018-09-28T06:09:19.884Z,292.00
2018-09-28T06:10:19.882Z,332.00
2018-09-28T06:11:19.880Z,384.00
2018-09-28T06:12:19.875Z,448.00
2018-09-28T06:13:19.872Z,472.00
2018-09-28T06:14:19.869Z,448.00
2018-09-28T06:15:19.867Z,464.00
2018-09-28T06:16:19.863Z,420.00
2018-09-28T06:17:19.860Z,412.00
2018-09-28T06:18:19.872Z,400.00
2018-09-28T06:19:19.858Z,360.00
2018-09-28T06:20:19.852Z,376.00
2018-09-28T06:21:19.849Z,396.00
2018-09-28T06:22:19.846Z,376.00
2018-09-28T06:23:19.842Z,368.00
2018-09-28T06:24:19.925Z,380.00
2018-09-28T06:25:19.837Z,368.00
2018-09-28T06:26:19.832Z,360.00
2018-09-28T06:27:19.830Z,440.00
2018-09-28T06:28:19.829Z,516.00
2018-09-28T06:29:19.825Z,548.00
2018-09-28T06:30:19.925Z,504.00
2018-09-28T06:31:19.818Z,440.00
2018-09-28T06:32:19.815Z,456.00
2018-09-28T06:33:19.815Z,516.00
2018-09-28T06:34:19.808Z,592.00
2018-09-28T06:35:19.804Z,728.00
2018-09-28T06:36:19.870Z,808.00
2018-09-28T06:37:19.799Z,800.00
2018-09-28T06:38:19.796Z,788.00
2018-09-28T06:39:19.793Z,796.00
2018-09-28T06:40:19.792Z,944.00
2018-09-28T06:41:19.786Z,1044.00
2018-09-28T06:42:19.831Z,1052.00
2018-09-28T06:43:19.781Z,1008.00
2018-09-28T06:44:19.777Z,920.00
2018-09-28T06:45:19.775Z,840.00
2018-09-28T06:46:19.772Z,840.00
2018-09-28T06:47:19.770Z,712.00
2018-09-28T06:48:19.825Z,684.00
2018-09-28T06:49:19.764Z,680.00
2018-09-28T06:50:19.760Z,776.00
2018-09-28T06:51:19.819Z,960.00
2018-09-28T06:52:19.754Z,980.00
2018-09-28T06:53:19.752Z,992.00
2018-09-28T06:54:19.764Z,988.00
2018-09-28T06:55:19.746Z,1072.00
2018-09-28T06:56:19.742Z,1068.00
2018-09-28T06:57:19.739Z,940.00
2018-09-28T06:58:19.764Z,876.00
2018-09-28T06:59:19.730Z,972.00
2018-09-28T07:00:19.804Z,1104.00
2018-09-28T07:01:19.726Z,1176.00
2018-09-28T07:02:19.723Z,1284.00
2018-09-28T07:03:19.727Z,1412.00
2018-09-28T07:04:19.716Z,1516.00
2018-09-28T07:05:19.714Z,1560.00
2018-09-28T07:06:19.776Z,1588.00
2018-09-28T07:07:19.708Z,1472.00
2018-09-28T07:08:19.704Z,1476.00
2018-09-28T07:09:19.719Z,1672.00
2018-09-28T07:10:19.699Z,1856.00
2018-09-28T07:11:19.695Z,1924.00
2018-09-28T07:12:19.719Z,2164.00
2018-09-28T07:13:19.689Z,2272.00
2018-09-28T07:14:19.697Z,2064.00
2018-09-28T07:15:19.683Z,2016.00
2018-09-28T07:16:19.705Z,2064.00
2018-09-28T07:17:19.678Z,2132.00
2018-09-28T07:18:19.708Z,2112.00
2018-09-28T07:19:19.670Z,1972.00
2018-09-28T07:20:19.669Z,2008.00
2018-09-28T07:21:19.665Z,2224.00
2018-09-28T07:22:19.660Z,2404.00
2018-09-28T07:23:19.659Z,2288.00
2018-09-28T07:24:19.667Z,1956.00
2018-09-28T07:25:19.654Z,1668.00
2018-09-28T07:26:19.649Z,1420.00
2018-09-28T07:27:19.645Z,1340.00
2018-09-28T07:28:19.645Z,1004.00
2018-09-28T07:29:19.640Z,780.00
2018-09-28T07:30:19.655Z,752.00
2018-09-28T07:31:19.637Z,924.00
2018-09-28T07:32:19.632Z,1092.00
2018-09-28T07:33:19.628Z,1580.00
2018-09-28T07:34:19.635Z,2172.00
2018-09-28T07:35:19.622Z,2704.00
2018-09-28T07:36:19.710Z,3028.00
2018-09-28T07:37:19.653Z,3028.00
2018-09-28T07:38:19.612Z,2788.00
2018-09-28T07:39:19.611Z,2480.00
2018-09-28T07:40:19.609Z,2360.00
2018-09-28T07:41:19.605Z,2428.00
2018-09-28T07:42:19.682Z,2488.00
2018-09-28T07:43:19.598Z,2512.00
2018-09-28T07:44:19.596Z,2512.00
2018-09-28T07:45:19.593Z,2568.00
2018-09-28T07:46:19.589Z,2792.00
2018-09-28T07:47:19.585Z,3016.00
2018-09-28T07:48:19.629Z,3380.00
2018-09-28T07:49:19.684Z,3816.00
2018-09-28T07:50:19.578Z,4052.00
2018-09-28T07:51:19.575Z,4044.00
2018-09-28T07:52:19.572Z,3628.00
2018-09-28T07:53:19.571Z,3204.00
2018-09-28T07:54:19.566Z,2972.00
2018-09-28T07:55:19.565Z,2896.00
2018-09-28T07:56:19.562Z,2804.00
2018-09-28T07:57:19.558Z,2744.00
2018-09-28T07:58:19.561Z,2808.00
2018-09-28T07:59:19.552Z,2924.00
2018-09-28T08:00:19.550Z,3040.00
2018-09-28T08:01:19.548Z,3248.00
2018-09-28T08:02:19.545Z,3444.00
2018-09-28T08:03:19.543Z,3472.00
2018-09-28T08:04:19.542Z,3596.00
2018-09-28T08:05:19.539Z,3960.00
2018-09-28T08:06:19.534Z,4316.00
2018-09-28T08:07:19.532Z,4472.00
2018-09-28T08:08:19.530Z,4320.00
2018-09-28T08:09:19.532Z,3944.00
2018-09-28T08:10:19.533Z,3688.00
2018-09-28T08:11:19.524Z,3596.00
2018-09-28T08:12:19.520Z,3652.00
2018-09-28T08:13:19.517Z,3692.00
2018-09-28T08:14:19.519Z,3740.00
2018-09-28T08:15:19.514Z,3732.00
2018-09-28T08:16:19.510Z,3696.00
2018-09-28T08:17:19.507Z,3656.00
2018-09-28T08:18:19.505Z,3672.00
2018-09-28T08:19:19.502Z,3812.00
2018-09-28T08:20:19.502Z,3984.00
2018-09-28T08:21:19.499Z,4168.00
2018-09-28T08:22:19.495Z,4424.00
2018-09-28T08:23:19.506Z,4764.00
2018-09-28T08:24:19.491Z,5240.00
2018-09-28T08:25:19.489Z,5676.00
2018-09-28T08:26:19.486Z,5684.00
2018-09-28T08:27:19.486Z,5144.00
2018-09-28T08:28:19.484Z,4472.00
2018-09-28T08:29:19.482Z,4164.00
2018-09-28T08:30:19.489Z,4100.00
2018-09-28T08:31:19.475Z,4076.00
2018-09-28T08:32:19.473Z,4132.00
2018-09-28T08:33:19.471Z,4124.00
2018-09-28T08:34:19.471Z,4252.00
2018-09-28T08:35:19.467Z,4368.00
2018-09-28T08:36:19.502Z,4180.00
2018-09-28T08:37:19.463Z,4148.00
2018-09-28T08:38:19.461Z,4276.00
2018-09-28T08:39:19.459Z,4528.00
2018-09-28T08:40:19.456Z,4912.00
2018-09-28T08:41:19.455Z,5208.00
2018-09-28T08:42:19.453Z,5128.00
2018-09-28T08:43:19.451Z,4928.00
2018-09-28T08:44:19.451Z,5088.00
2018-09-28T08:45:19.447Z,5584.00
2018-09-28T08:46:19.446Z,6020.00
2018-09-28T08:47:19.444Z,6760.00
2018-09-28T08:48:19.445Z,7728.00
2018-09-28T08:49:19.501Z,8204.00
2018-09-28T08:50:19.437Z,8008.00
2018-09-28T08:51:19.437Z,7544.00
2018-09-28T08:52:19.434Z,7092.00
2018-09-28T08:53:19.434Z,7172.00
2018-09-28T08:54:19.431Z,7188.00
2018-09-28T08:55:19.428Z,7288.00
2018-09-28T08:56:19.432Z,7084.00
2018-09-28T08:57:19.426Z,7072.00
2018-09-28T08:58:19.423Z,6888.00
2018-09-28T08:59:19.422Z,6740.00
2018-09-28T09:00:19.422Z,6544.00
2018-09-28T09:01:19.421Z,6540.00
2018-09-28T09:02:19.507Z,6332.00
2018-09-28T09:03:19.416Z,5620.00
2018-09-28T09:04:19.415Z,5036.00
2018-09-28T09:05:19.414Z,4672.00
2018-09-28T09:06:19.412Z,4372.00
2018-09-28T09:07:19.412Z,4140.00
2018-09-28T09:08:19.411Z,3916.00
2018-09-28T09:09:19.408Z,3652.00
2018-09-28T09:10:19.406Z,3484.00
2018-09-28T09:11:19.405Z,3496.00
2018-09-28T09:12:19.403Z,3568.00
2018-09-28T09:13:19.403Z,3644.00
2018-09-28T09:14:19.400Z,3848.00
2018-09-28T09:15:19.400Z,4144.00
2018-09-28T09:16:19.399Z,4324.00
2018-09-28T09:17:19.401Z,4400.00
2018-09-28T09:18:19.410Z,4404.00
2018-09-28T09:19:19.394Z,4188.00
2018-09-28T09:20:19.392Z,4016.00
2018-09-28T09:21:19.390Z,3940.00
2018-09-28T09:22:19.388Z,4044.00
2018-09-28T09:23:19.388Z,4132.00
2018-09-28T09:24:19.385Z,4192.00
2018-09-28T09:25:19.384Z,4232.00
2018-09-28T09:26:19.382Z,4268.00
2018-09-28T09:27:19.380Z,4392.00
2018-09-28T09:28:19.379Z,4472.00
2018-09-28T09:29:19.379Z,4596.00
2018-09-28T09:30:19.380Z,4848.00
2018-09-28T09:31:19.372Z,5072.00
2018-09-28T09:32:19.373Z,5236.00
2018-09-28T09:33:19.373Z,5364.00
2018-09-28T09:34:19.370Z,5448.00
2018-09-28T09:35:19.369Z,5568.00
2018-09-28T09:36:19.367Z,5624.00
2018-09-28T09:37:19.366Z,5600.00
2018-09-28T09:38:19.365Z,5484.00
2018-09-28T09:39:19.364Z,5288.00
2018-09-28T09:40:19.362Z,5168.00
2018-09-28T09:41:19.361Z,5208.00
2018-09-28T09:42:19.360Z,5432.00
2018-09-28T09:43:19.358Z,5704.00
2018-09-28T09:44:19.356Z,5860.00
2018-09-28T09:45:19.357Z,5900.00
2018-09-28T09:46:19.352Z,6200.00
2018-09-28T09:47:19.354Z,6568.00
2018-09-28T09:48:19.357Z,6900.00
2018-09-28T09:49:19.350Z,7176.00
2018-09-28T09:50:19.349Z,7148.00
2018-09-28T09:51:19.347Z,6916.00
2018-09-28T09:52:19.346Z,6592.00
2018-09-28T09:53:19.344Z,6576.00
2018-09-28T09:54:19.344Z,6584.00
2018-09-28T09:55:19.343Z,6340.00
2018-09-28T09:56:19.340Z,6100.00
2018-09-28T09:57:19.341Z,6136.00
2018-09-28T09:58:19.340Z,6024.00
2018-09-28T09:59:19.338Z,6180.00
2018-09-28T10:00:19.339Z,6292.00
2018-09-28T10:01:19.341Z,6376.00
2018-09-28T10:02:19.336Z,6476.00
2018-09-28T10:03:19.337Z,6768.00
2018-09-28T10:04:19.334Z,6880.00
2018-09-28T10:05:19.334Z,6796.00
2018-09-28T10:06:19.332Z,6952.00
2018-09-28T10:07:19.332Z,7020.00
2018-09-28T10:08:19.332Z,7076.00
2018-09-28T10:09:19.337Z,6828.00
2018-09-28T10:10:19.330Z,6480.00
2018-09-28T10:11:19.329Z,6172.00
2018-09-28T10:12:19.344Z,6184.00
2018-09-28T10:13:19.326Z,6596.00
2018-09-28T10:14:19.326Z,7308.00
2018-09-28T10:15:19.327Z,8104.00
2018-09-28T10:16:19.326Z,8728.00
2018-09-28T10:17:19.325Z,9004.00
2018-09-28T10:18:19.325Z,9400.00
2018-09-28T10:19:19.348Z,9452.00
2018-09-28T10:20:19.323Z,9276.00
2018-09-28T10:21:19.370Z,9008.00
2018-09-28T10:22:19.321Z,8680.00
2018-09-28T10:23:19.322Z,8492.00
2018-09-28T10:24:19.324Z,7836.00
2018-09-28T10:25:19.323Z,7324.00
2018-09-28T10:26:19.320Z,7144.00
2018-09-28T10:27:19.329Z,7012.00
2018-09-28T10:28:19.389Z,7200.00
2018-09-28T10:29:19.320Z,7588.00
2018-09-28T10:30:19.318Z,8304.00
2018-09-28T10:31:19.319Z,8292.00
2018-09-28T10:32:19.320Z,8412.00
2018-09-28T10:33:19.319Z,8100.00
2018-09-28T10:34:19.357Z,8180.00
2018-09-28T10:35:19.320Z,8400.00
2018-09-28T10:36:19.317Z,9568.00
2018-09-28T10:37:19.318Z,10232.00
2018-09-28T10:38:19.315Z,10400.00
2018-09-28T10:39:19.368Z,10632.00
2018-09-28T10:40:19.341Z,10168.00
2018-09-28T10:41:19.389Z,10960.00
2018-09-28T10:42:19.316Z,12020.00
2018-09-28T10:43:19.319Z,12212.00
2018-09-28T10:44:19.315Z,12232.00
2018-09-28T10:45:19.354Z,12984.00
2018-09-28T10:46:19.316Z,12864.00
2018-09-28T10:47:19.316Z,12888.00
2018-09-28T10:48:19.315Z,12560.00
2018-09-28T10:49:19.339Z,11732.00
2018-09-28T10:50:19.317Z,11880.00
2018-09-28T10:51:19.376Z,11748.00
2018-09-28T10:52:19.457Z,11384.00
2018-09-28T10:53:19.322Z,10740.00
2018-09-28T10:54:19.326Z,10696.00
2018-09-28T10:55:19.319Z,10556.00
2018-09-28T10:56:19.320Z,10944.00
2018-09-28T10:57:19.382Z,11184.00
2018-09-28T10:58:19.359Z,11192.00
2018-09-28T10:59:19.323Z,11084.00
2018-09-28T11:00:19.375Z,10936.00
2018-09-28T11:01:19.325Z,10884.00
2018-09-28T11:02:19.324Z,10780.00
2018-09-28T11:03:19.355Z,10468.00
2018-09-28T11:04:19.382Z,10252.00
2018-09-28T11:05:19.329Z,9864.00
2018-09-28T11:06:19.329Z,9760.00
2018-09-28T11:07:19.337Z,9940.00
2018-09-28T11:08:19.364Z,10288.00
2018-09-28T11:09:19.338Z,10552.00
2018-09-28T11:10:19.383Z,10796.00
2018-09-28T11:11:19.335Z,11268.00
2018-09-28T11:12:19.335Z,11300.00
2018-09-28T11:13:19.336Z,11772.00
2018-09-28T11:14:19.337Z,11980.00
2018-09-28T11:15:19.392Z,12428.00
2018-09-28T11:16:19.339Z,12156.00
2018-09-28T11:17:19.342Z,11728.00
2018-09-28T11:18:19.342Z,12296.00
2018-09-28T11:19:19.343Z,12344.00
2018-09-28T11:20:19.345Z,11356.00
2018-09-28T11:21:19.455Z,10712.00
2018-09-28T11:22:19.348Z,8920.00
2018-09-28T11:23:19.348Z,7804.00
2018-09-28T11:24:19.350Z,6864.00
2018-09-28T11:25:19.352Z,5524.00
2018-09-28T11:26:19.360Z,4444.00
2018-09-28T11:27:19.378Z,3660.00
2018-09-28T11:28:19.357Z,3432.00
2018-09-28T11:29:19.358Z,3500.00
2018-09-28T11:30:19.358Z,3668.00
2018-09-28T11:31:19.361Z,4060.00
2018-09-28T11:32:19.364Z,4652.00
2018-09-28T11:33:19.431Z,4500.00
2018-09-28T11:34:19.363Z,4784.00
2018-09-28T11:35:19.367Z,4964.00
2018-09-28T11:36:19.366Z,4696.00
2018-09-28T11:37:19.368Z,4744.00
2018-09-28T11:38:19.368Z,4908.00
2018-09-28T11:39:19.409Z,4724.00
2018-09-28T11:40:19.369Z,4568.00
2018-09-28T11:41:19.374Z,4604.00
2018-09-28T11:42:19.370Z,4588.00
2018-09-28T11:43:19.399Z,4696.00
2018-09-28T11:44:19.374Z,4836.00
2018-09-28T11:45:19.435Z,4956.00
2018-09-28T11:46:19.375Z,5504.00
2018-09-28T11:47:19.375Z,6156.00
2018-09-28T11:48:19.375Z,5520.00
2018-09-28T11:49:19.379Z,6104.00
2018-09-28T11:50:19.374Z,6292.00
2018-09-28T11:51:19.402Z,5928.00
2018-09-28T11:52:19.385Z,7016.00
2018-09-28T11:53:19.377Z,6684.00
2018-09-28T11:54:19.376Z,6348.00
2018-09-28T11:55:19.377Z,6904.00
2018-09-28T11:56:19.378Z,6744.00
2018-09-28T11:57:19.384Z,7048.00
2018-09-28T11:58:19.378Z,6920.00
2018-09-28T11:59:19.379Z,6828.00
2018-09-28T12:00:19.378Z,6980.00
2018-09-28T12:01:19.380Z,6364.00
2018-09-28T12:02:19.381Z,6436.00
2018-09-28T12:03:19.398Z,6272.00
2018-09-28T12:04:19.379Z,5200.00
2018-09-28T12:05:19.381Z,5884.00
2018-09-28T12:06:19.455Z,6132.00
2018-09-28T12:07:19.381Z,6216.00
2018-09-28T12:08:19.381Z,6192.00
2018-09-28T12:09:19.447Z,6368.00
2018-09-28T12:10:19.382Z,5784.00
2018-09-28T12:11:19.383Z,5668.00
2018-09-28T12:12:19.402Z,5648.00
2018-09-28T12:13:19.416Z,5820.00
2018-09-28T12:14:19.382Z,5396.00
2018-09-28T12:15:19.428Z,5668.00
2018-09-28T12:16:19.383Z,5896.00
2018-09-28T12:17:19.385Z,6168.00
2018-09-28T12:18:19.447Z,6496.00
2018-09-28T12:19:19.383Z,6692.00
2018-09-28T12:20:19.384Z,6128.00
2018-09-28T12:21:19.405Z,5992.00
2018-09-28T12:22:19.385Z,5044.00
2018-09-28T12:23:19.385Z,5164.00
2018-09-28T12:24:19.406Z,5876.00
2018-09-28T12:25:19.386Z,6040.00
2018-09-28T12:26:19.383Z,6024.00
2018-09-28T12:27:19.406Z,5772.00
2018-09-28T12:28:19.389Z,4584.00
2018-09-28T12:29:19.385Z,5036.00
2018-09-28T12:30:19.404Z,3572.00
2018-09-28T12:31:19.386Z,5056.00
2018-09-28T12:32:19.387Z,5192.00
2018-09-28T12:33:19.448Z,3072.00
2018-09-28T12:34:19.384Z,4816.00
2018-09-28T12:35:19.387Z,4224.00
2018-09-28T12:36:19.425Z,4632.00